Time;durP1;ratioP1;P1;durP2;ratioP2;P2;SDS_P1;SDS_P2;PMS_P1;PMS_P2;Temp;Humidity;BMP_temperature;BMP_pressure;BME280_temperature;BME280_humidity;BME280_pressure;Samples;Min_cycle;Max_cycle;Signal;HPM_P1;HPM_P2
2021/10/31 00:00:29;;;;;;;12.57;9.37;;;;;;;;;;4954280;29;20201;-81
2021/10/31 00:02:57;;;;;;;9.93;8.93;;;;;;;;;;4954162;29;20205;-81
2021/10/31 00:05:25;;;;;;;12.27;8.30;;;;;;;;;;4953768;28;20208;-81
2021/10/31 00:07:52;;;;;;;9.93;7.80;;;;;;;;;;4954007;29;20670;-82
2021/10/31 00:10:20;;;;;;;8.60;7.70;;;;;;;;;;4953880;29;20209;-82
2021/10/31 00:12:48;;;;;;;8.73;7.23;;;;;;;;;;4954169;29;20202;-82
2021/10/31 00:15:15;;;;;;;9.47;7.87;;;;;;;;;;4953596;29;20198;-82
2021/10/31 00:17:44;;;;;;;8.83;8.03;;;;;;;;;;4953908;29;20309;-82
2021/10/31 00:20:11;;;;;;;8.77;7.87;;;;;;;;;;4954064;29;20208;-82
2021/10/31 00:22:40;;;;;;;9.43;7.37;;;;;;;;;;4954109;29;20205;-82
2021/10/31 00:25:07;;;;;;;10.10;7.47;;;;;;;;;;4953742;29;20206;-81
2021/10/31 00:27:35;;;;;;;9.10;7.77;;;;;;;;;;4953738;29;20623;-82
2021/10/31 00:30:02;;;;;;;13.63;9.33;;;;;;;;;;4953541;29;20206;-81
2021/10/31 00:32:29;;;;;;;11.70;10.17;;;;;;;;;;4953370;29;20264;-82
2021/10/31 00:34:58;;;;;;;12.10;10.83;;;;;;;;;;4953851;29;20197;-82
2021/10/31 00:37:25;;;;;;;15.07;13.43;;;;;;;;;;4953477;29;20225;-82
2021/10/31 00:39:52;;;;;;;17.70;13.30;;;;;;;;;;4953622;29;20197;-82
2021/10/31 00:42:20;;;;;;;10.93;9.43;;;;;;;;;;4953381;29;20726;-82
2021/10/31 00:44:47;;;;;;;11.60;8.97;;;;;;;;;;4953800;29;20249;-82
2021/10/31 00:47:15;;;;;;;9.27;7.73;;;;;;;;;;4953769;29;20194;-82
2021/10/31 00:49:42;;;;;;;8.03;7.23;;;;;;;;;;4953454;28;20324;-82
2021/10/31 00:52:11;;;;;;;8.40;7.33;;;;;;;;;;4953216;29;20221;-82
2021/10/31 00:54:39;;;;;;;9.77;7.97;;;;;;;;;;4953405;29;20216;-82
2021/10/31 00:57:07;;;;;;;10.37;8.17;;;;;;;;;;4953544;29;20225;-82
2021/10/31 00:59:35;;;;;;;8.83;7.93;;;;;;;;;;4953630;29;20268;-82
2021/10/31 01:02:06;;;;;;;10.77;8.13;;;;;;;;;;4953678;29;20248;-82
2021/10/31 01:04:34;;;;;;;10.17;8.50;;;;;;;;;;4953675;29;20699;-82
2021/10/31 01:07:15;;;;;;;11.00;8.90;;;;;;;;;;4953520;29;20209;-82
2021/10/31 01:09:56;;;;;;;15.80;8.17;;;;;;;;;;4953507;29;20190;-81
2021/10/31 01:12:42;;;;;;;8.00;7.17;;;;;;;;;;4953414;29;20194;-82
2021/10/31 01:15:18;;;;;;;10.13;7.57;;;;;;;;;;4953702;29;20194;-82
2021/10/31 01:17:57;;;;;;;8.03;7.23;;;;;;;;;;4955672;28;20216;-82
2021/10/31 01:20:32;;;;;;;8.50;7.13;;;;;;;;;;4956628;29;20186;-82
2021/10/31 01:23:26;;;;;;;8.70;7.23;;;;;;;;;;4957023;29;20299;-81
2021/10/31 01:26:04;;;;;;;8.20;7.40;;;;;;;;;;4954579;29;20253;-81
2021/10/31 01:28:47;;;;;;;8.67;6.63;;;;;;;;;;4956765;29;20194;-81
2021/10/31 01:31:20;;;;;;;10.20;7.53;;;;;;;;;;4956509;29;20189;-81
2021/10/31 01:33:51;;;;;;;11.07;9.43;;;;;;;;;;4956885;29;20196;-81
2021/10/31 01:36:26;;;;;;;11.77;8.90;;;;;;;;;;4956485;29;20205;-80
2021/10/31 01:39:04;;;;;;;9.70;8.43;;;;;;;;;;4956602;29;20190;-81
2021/10/31 01:41:45;;;;;;;9.37;8.23;;;;;;;;;;4956169;29;20651;-81
2021/10/31 01:44:21;;;;;;;12.20;9.40;;;;;;;;;;4956993;29;20194;-81
2021/10/31 01:46:55;;;;;;;10.37;8.97;;;;;;;;;;4956563;29;20197;-81
2021/10/31 01:49:26;;;;;;;11.57;10.43;;;;;;;;;;4956528;29;20253;-81
2021/10/31 01:51:56;;;;;;;16.53;12.43;;;;;;;;;;4956171;29;20194;-81
2021/10/31 01:54:30;;;;;;;12.27;9.10;;;;;;;;;;4956503;29;20284;-81
2021/10/31 01:56:59;;;;;;;11.03;9.87;;;;;;;;;;4956330;29;20210;-81
2021/10/31 01:59:29;;;;;;;11.23;10.00;;;;;;;;;;4956348;29;20229;-81
2021/10/31 02:01:57;;;;;;;12.37;10.43;;;;;;;;;;4955890;29;20241;-81
2021/10/31 02:04:26;;;;;;;11.10;8.47;;;;;;;;;;4956339;29;20256;-81
2021/10/31 02:06:54;;;;;;;10.13;9.00;;;;;;;;;;4955982;29;20734;-81
2021/10/31 02:09:24;;;;;;;10.20;8.37;;;;;;;;;;4955924;29;20632;-81
2021/10/31 02:11:54;;;;;;;11.37;8.60;;;;;;;;;;4955962;29;20230;-82
2021/10/31 02:14:21;;;;;;;9.60;8.60;;;;;;;;;;4955287;29;20232;-82
2021/10/31 02:16:49;;;;;;;8.40;7.60;;;;;;;;;;4955842;29;20204;-81
2021/10/31 02:19:18;;;;;;;9.07;8.17;;;;;;;;;;4956258;29;20202;-82
2021/10/31 02:21:47;;;;;;;7.73;6.90;;;;;;;;;;4955674;29;20233;-81
2021/10/31 02:24:16;;;;;;;21.73;13.40;;;;;;;;;;4955904;29;20205;-81
2021/10/31 02:26:44;;;;;;;39.60;25.77;;;;;;;;;;4955711;29;20198;-81
2021/10/31 02:29:11;;;;;;;15.53;12.47;;;;;;;;;;4955559;28;20202;-81
2021/10/31 02:31:39;;;;;;;10.60;9.53;;;;;;;;;;4955552;29;20197;-81
2021/10/31 02:34:06;;;;;;;12.83;9.47;;;;;;;;;;4955605;29;20816;-81
2021/10/31 02:36:34;;;;;;;10.93;9.83;;;;;;;;;;4955437;29;20293;-82
2021/10/31 02:39:02;;;;;;;10.33;9.23;;;;;;;;;;4955735;29;20229;-81
2021/10/31 02:41:31;;;;;;;14.23;10.27;;;;;;;;;;4955238;29;20201;-81
2021/10/31 02:43:59;;;;;;;15.50;10.73;;;;;;;;;;4955705;29;20257;-81
2021/10/31 02:46:28;;;;;;;11.00;8.73;;;;;;;;;;4955232;29;20232;-81
2021/10/31 02:48:56;;;;;;;11.93;10.30;;;;;;;;;;4955380;29;20683;-82
2021/10/31 02:51:28;;;;;;;11.17;9.10;;;;;;;;;;4935790;29;20714;-82
2021/10/31 02:53:59;;;;;;;12.10;10.93;;;;;;;;;;4936135;29;20191;-82
2021/10/31 02:56:29;;;;;;;12.50;11.20;;;;;;;;;;4936225;29;20261;-82
2021/10/31 02:59:01;;;;;;;15.90;11.97;;;;;;;;;;4936033;29;20317;-81
2021/10/31 03:01:30;;;;;;;13.33;11.23;;;;;;;;;;4935932;29;20557;-82
2021/10/31 03:03:58;;;;;;;11.47;10.30;;;;;;;;;;4935856;29;20590;-82
2021/10/31 03:06:26;;;;;;;12.87;9.27;;;;;;;;;;4936053;29;20234;-82
2021/10/31 03:08:53;;;;;;;11.43;9.10;;;;;;;;;;4936346;29;20644;-81
2021/10/31 03:11:20;;;;;;;11.50;7.93;;;;;;;;;;4935971;29;20252;-82
2021/10/31 03:13:48;;;;;;;10.70;7.37;;;;;;;;;;4925784;29;20211;-81
2021/10/31 03:16:16;;;;;;;7.77;6.97;;;;;;;;;;4935488;29;20239;-81
2021/10/31 03:18:44;;;;;;;8.40;7.10;;;;;;;;;;4935359;29;20234;-82
2021/10/31 03:21:12;;;;;;;7.80;6.93;;;;;;;;;;4935399;29;20206;-82
2021/10/31 03:23:39;;;;;;;7.40;6.63;;;;;;;;;;4935334;29;20213;-82
2021/10/31 03:26:06;;;;;;;8.47;7.20;;;;;;;;;;4935917;29;20641;-82
2021/10/31 03:28:34;;;;;;;6.93;6.23;;;;;;;;;;4935459;29;20203;-82
2021/10/31 03:31:01;;;;;;;8.77;6.43;;;;;;;;;;4935130;29;20206;-82
2021/10/31 03:33:30;;;;;;;14.50;7.70;;;;;;;;;;4934809;29;20210;-82
2021/10/31 03:35:57;;;;;;;9.73;8.20;;;;;;;;;;4934980;29;20207;-82
2021/10/31 03:38:25;;;;;;;10.83;8.10;;;;;;;;;;4935019;29;20233;-82
2021/10/31 03:40:52;;;;;;;11.57;8.50;;;;;;;;;;4934462;29;20203;-82
2021/10/31 03:43:20;;;;;;;12.10;9.73;;;;;;;;;;4934976;29;20202;-82
2021/10/31 03:45:49;;;;;;;21.13;13.47;;;;;;;;;;4935400;29;20252;-82
2021/10/31 03:48:17;;;;;;;16.93;12.73;;;;;;;;;;4935189;29;20667;-83
2021/10/31 03:50:45;;;;;;;11.13;8.57;;;;;;;;;;4934609;29;20270;-82
2021/10/31 03:53:13;;;;;;;10.03;8.10;;;;;;;;;;4935044;29;20675;-82
2021/10/31 03:55:40;;;;;;;10.13;8.40;;;;;;;;;;4934996;29;20211;-82
2021/10/31 03:58:07;;;;;;;8.30;7.40;;;;;;;;;;4934934;29;20234;-83
2021/10/31 04:00:35;;;;;;;10.47;8.30;;;;;;;;;;4934734;29;20257;-83
2021/10/31 04:03:02;;;;;;;8.30;7.50;;;;;;;;;;4934925;29;20207;-83
2021/10/31 04:05:30;;;;;;;10.33;8.50;;;;;;;;;;4934663;29;20198;-83
2021/10/31 04:07:58;;;;;;;10.97;9.83;;;;;;;;;;4933220;29;20241;-83
2021/10/31 04:10:25;;;;;;;8.73;7.83;;;;;;;;;;4934598;29;20202;-82
2021/10/31 04:12:53;;;;;;;9.57;8.57;;;;;;;;;;4934514;29;20210;-82
2021/10/31 04:15:20;;;;;;;24.40;14.83;;;;;;;;;;4934333;29;20253;-83
2021/10/31 04:17:48;;;;;;;14.17;10.20;;;;;;;;;;4934623;29;20222;-82
2021/10/31 04:20:15;;;;;;;9.87;8.87;;;;;;;;;;4934305;29;20203;-82
2021/10/31 04:22:44;;;;;;;10.73;8.30;;;;;;;;;;4934805;29;20281;-82
2021/10/31 04:25:13;;;;;;;10.63;8.77;;;;;;;;;;4934427;29;20203;-83
2021/10/31 04:27:40;;;;;;;10.23;8.53;;;;;;;;;;4934961;29;20297;-83
2021/10/31 04:30:09;;;;;;;9.00;8.10;;;;;;;;;;4934207;29;20584;-82
2021/10/31 04:32:38;;;;;;;11.63;8.70;;;;;;;;;;4934117;29;20202;-82
2021/10/31 04:35:06;;;;;;;12.70;8.57;;;;;;;;;;4934417;29;20643;-82
2021/10/31 04:37:36;;;;;;;8.67;7.70;;;;;;;;;;4934539;29;20289;-82
2021/10/31 04:40:06;;;;;;;10.53;8.60;;;;;;;;;;4934319;29;20198;-83
2021/10/31 04:42:35;;;;;;;13.00;11.63;;;;;;;;;;4934088;29;20209;-82
2021/10/31 04:45:02;;;;;;;9.43;8.53;;;;;;;;;;4934496;29;20210;-82
2021/10/31 04:47:29;;;;;;;12.70;11.07;;;;;;;;;;4934752;29;20676;-83
2021/10/31 04:49:57;;;;;;;10.40;9.40;;;;;;;;;;4922744;29;20275;-83
2021/10/31 04:52:24;;;;;;;9.87;8.87;;;;;;;;;;4917160;29;20676;-83
2021/10/31 04:54:52;;;;;;;11.60;10.50;;;;;;;;;;4918925;29;20700;-83
2021/10/31 04:57:19;;;;;;;9.60;8.67;;;;;;;;;;4919131;29;20235;-82
2021/10/31 04:59:48;;;;;;;9.47;7.70;;;;;;;;;;4918485;29;20231;-81
2021/10/31 05:02:15;;;;;;;9.67;8.30;;;;;;;;;;4918804;29;20728;-82
2021/10/31 05:04:43;;;;;;;9.73;8.83;;;;;;;;;;4918606;29;20555;-81
2021/10/31 05:07:11;;;;;;;15.30;12.40;;;;;;;;;;4918805;29;20258;-82
2021/10/31 05:09:38;;;;;;;21.10;18.93;;;;;;;;;;4918786;29;20199;-82
2021/10/31 05:12:06;;;;;;;13.83;12.40;;;;;;;;;;4918771;29;20302;-82
2021/10/31 05:14:33;;;;;;;9.70;8.70;;;;;;;;;;4918742;29;20247;-81
2021/10/31 05:17:01;;;;;;;11.53;9.33;;;;;;;;;;4918597;29;20294;-82
2021/10/31 05:19:29;;;;;;;9.13;8.23;;;;;;;;;;4918918;29;20575;-81
2021/10/31 05:21:56;;;;;;;8.33;7.53;;;;;;;;;;4918977;29;20658;-82
2021/10/31 05:24:23;;;;;;;10.13;7.40;;;;;;;;;;4918390;29;20688;-82
2021/10/31 05:26:50;;;;;;;8.93;8.07;;;;;;;;;;4918686;29;20247;-82
2021/10/31 05:29:18;;;;;;;9.67;8.70;;;;;;;;;;4918878;29;20747;-82
2021/10/31 05:31:45;;;;;;;8.53;7.70;;;;;;;;;;4918301;29;20254;-82
2021/10/31 05:34:14;;;;;;;9.73;8.00;;;;;;;;;;4918715;29;20306;-82
2021/10/31 05:36:41;;;;;;;14.80;11.40;;;;;;;;;;4918538;29;20287;-82
2021/10/31 05:39:08;;;;;;;11.83;10.47;;;;;;;;;;4918343;29;20227;-82
2021/10/31 05:41:36;;;;;;;9.73;8.70;;;;;;;;;;4918499;29;20204;-83
2021/10/31 05:44:03;;;;;;;11.33;10.23;;;;;;;;;;4921560;29;20248;-83
2021/10/31 05:46:31;;;;;;;14.77;13.37;;;;;;;;;;4937766;29;20577;-83
2021/10/31 05:49:02;;;;;;;17.07;14.27;;;;;;;;;;4937339;29;20250;-82
2021/10/31 05:51:31;;;;;;;15.97;12.13;;;;;;;;;;4937139;29;20704;-81
2021/10/31 05:53:58;;;;;;;22.87;14.70;;;;;;;;;;4936932;29;20643;-83
2021/10/31 05:56:26;;;;;;;24.73;15.80;;;;;;;;;;4936935;29;20584;-82
2021/10/31 05:58:53;;;;;;;11.87;10.43;;;;;;;;;;4936918;29;20234;-82
2021/10/31 06:01:20;;;;;;;11.13;10.03;;;;;;;;;;4937003;29;20203;-82
2021/10/31 06:03:48;;;;;;;13.87;11.10;;;;;;;;;;4936527;29;20686;-83
2021/10/31 06:06:21;;;;;;;17.27;12.00;;;;;;;;;;4936903;29;20250;-83
2021/10/31 06:08:49;;;;;;;12.87;11.50;;;;;;;;;;4937235;29;20194;-82
2021/10/31 06:11:17;;;;;;;15.30;11.70;;;;;;;;;;4936563;29;20198;-82
2021/10/31 06:13:45;;;;;;;13.17;9.27;;;;;;;;;;4936931;29;20250;-82
2021/10/31 06:16:13;;;;;;;11.90;10.70;;;;;;;;;;4936633;29;20649;-82
2021/10/31 06:18:41;;;;;;;12.10;10.47;;;;;;;;;;4936294;29;20258;-82
2021/10/31 06:21:08;;;;;;;9.47;8.57;;;;;;;;;;4936613;29;20672;-82
2021/10/31 06:23:36;;;;;;;12.73;11.53;;;;;;;;;;4936589;29;20207;-82
2021/10/31 06:26:05;;;;;;;10.40;9.47;;;;;;;;;;4936525;29;20199;-82
2021/10/31 06:28:33;;;;;;;9.87;8.97;;;;;;;;;;4936768;29;20202;-82
2021/10/31 06:31:00;;;;;;;11.33;10.23;;;;;;;;;;4936201;29;20199;-83
2021/10/31 06:33:27;;;;;;;12.03;10.57;;;;;;;;;;4936660;29;20202;-82
2021/10/31 06:35:55;;;;;;;16.97;12.67;;;;;;;;;;4936706;29;20230;-82
2021/10/31 06:38:22;;;;;;;15.37;12.97;;;;;;;;;;4936597;29;20259;-83
2021/10/31 06:40:49;;;;;;;14.57;13.07;;;;;;;;;;4936296;29;20202;-83
2021/10/31 06:43:18;;;;;;;14.07;12.00;;;;;;;;;;4936358;29;20233;-82
2021/10/31 06:45:47;;;;;;;11.40;10.20;;;;;;;;;;4936582;29;20205;-82
2021/10/31 06:48:15;;;;;;;10.07;9.07;;;;;;;;;;4936438;29;20238;-82
2021/10/31 06:50:42;;;;;;;9.53;8.60;;;;;;;;;;4935876;29;20727;-82
2021/10/31 06:53:09;;;;;;;13.03;11.87;;;;;;;;;;4936574;29;20633;-83
2021/10/31 06:55:37;;;;;;;11.67;10.57;;;;;;;;;;4936144;29;20639;-83
2021/10/31 06:58:04;;;;;;;15.10;13.70;;;;;;;;;;4936439;29;20219;-82
2021/10/31 07:00:33;;;;;;;14.97;13.57;;;;;;;;;;4935723;29;20202;-82
2021/10/31 07:03:00;;;;;;;9.73;8.73;;;;;;;;;;4936129;29;20688;-83
2021/10/31 07:05:28;;;;;;;10.97;9.80;;;;;;;;;;4930762;29;20206;-84
2021/10/31 07:07:56;;;;;;;11.80;9.70;;;;;;;;;;4936004;29;20242;-84
2021/10/31 07:10:23;;;;;;;13.50;9.63;;;;;;;;;;4920513;29;20392;-83
2021/10/31 07:12:51;;;;;;;13.07;10.37;;;;;;;;;;4916680;29;20219;-84
2021/10/31 07:15:18;;;;;;;14.03;10.63;;;;;;;;;;4916386;29;20678;-83
2021/10/31 07:17:47;;;;;;;11.33;9.13;;;;;;;;;;4916878;29;20207;-83
2021/10/31 07:20:14;;;;;;;10.87;9.17;;;;;;;;;;4916520;29;20267;-83
2021/10/31 07:22:41;;;;;;;9.97;8.30;;;;;;;;;;4916703;29;20243;-83
2021/10/31 07:25:11;;;;;;;9.13;8.23;;;;;;;;;;4916589;29;20244;-83
2021/10/31 07:27:38;;;;;;;11.17;8.13;;;;;;;;;;4917114;29;20283;-84
2021/10/31 07:30:06;;;;;;;10.17;8.97;;;;;;;;;;4916742;29;20206;-83
2021/10/31 07:32:34;;;;;;;8.40;7.50;;;;;;;;;;4916719;29;20214;-83
2021/10/31 07:35:02;;;;;;;8.80;7.80;;;;;;;;;;4916401;29;20205;-83
2021/10/31 07:37:30;;;;;;;11.10;8.30;;;;;;;;;;4914058;29;20208;-84
2021/10/31 07:39:58;;;;;;;11.97;8.60;;;;;;;;;;4916245;29;20258;-83
2021/10/31 07:42:28;;;;;;;8.97;8.13;;;;;;;;;;4916639;29;20226;-83
2021/10/31 07:44:56;;;;;;;9.43;8.23;;;;;;;;;;4916207;29;20203;-84
2021/10/31 07:47:23;;;;;;;8.90;7.50;;;;;;;;;;4916117;29;20199;-83
2021/10/31 07:49:51;;;;;;;11.03;9.07;;;;;;;;;;4930063;28;20242;-84
2021/10/31 07:52:20;;;;;;;9.13;8.23;;;;;;;;;;4950376;29;20208;-83
2021/10/31 07:54:48;;;;;;;8.37;7.57;;;;;;;;;;4943680;29;20304;-84
2021/10/31 07:57:17;;;;;;;10.03;9.13;;;;;;;;;;4935192;29;20202;-84
2021/10/31 07:59:45;;;;;;;7.87;6.87;;;;;;;;;;4934883;29;20268;-83
2021/10/31 08:02:12;;;;;;;11.00;8.73;;;;;;;;;;4935308;29;20226;-84
2021/10/31 08:04:39;;;;;;;14.60;8.07;;;;;;;;;;4945677;29;20206;-84
2021/10/31 08:07:07;;;;;;;12.33;9.03;;;;;;;;;;4934761;29;20210;-83
2021/10/31 08:09:36;;;;;;;12.23;8.97;;;;;;;;;;4934926;29;20293;-84
2021/10/31 08:12:03;;;;;;;13.13;9.53;;;;;;;;;;4935447;29;20218;-84
2021/10/31 08:14:31;;;;;;;13.40;9.43;;;;;;;;;;4935105;29;20205;-84
2021/10/31 08:16:58;;;;;;;21.87;12.93;;;;;;;;;;4934482;29;20585;-83
2021/10/31 08:19:25;;;;;;;13.13;9.10;;;;;;;;;;4935073;29;20332;-84
2021/10/31 08:21:52;;;;;;;9.93;7.10;;;;;;;;;;4934593;29;20589;-83
2021/10/31 08:24:20;;;;;;;11.10;8.30;;;;;;;;;;4934470;29;20210;-84
2021/10/31 08:26:49;;;;;;;9.70;8.33;;;;;;;;;;4934551;29;20208;-84
2021/10/31 08:29:19;;;;;;;13.07;9.50;;;;;;;;;;4934934;29;20198;-84
2021/10/31 08:31:49;;;;;;;18.63;14.00;;;;;;;;;;4934610;29;20194;-84
2021/10/31 08:34:16;;;;;;;13.57;10.70;;;;;;;;;;4934855;29;20191;-84
2021/10/31 08:36:44;;;;;;;10.27;9.27;;;;;;;;;;4934380;29;20198;-84
2021/10/31 08:39:11;;;;;;;12.80;10.07;;;;;;;;;;4934605;29;20317;-84
2021/10/31 08:41:39;;;;;;;10.93;8.87;;;;;;;;;;4934462;29;20724;-84
2021/10/31 08:44:07;;;;;;;10.43;9.37;;;;;;;;;;4934587;29;20206;-84
2021/10/31 08:46:35;;;;;;;11.50;9.57;;;;;;;;;;4934218;29;20214;-83
2021/10/31 08:49:04;;;;;;;12.77;11.47;;;;;;;;;;4934617;29;20202;-83
2021/10/31 08:51:31;;;;;;;13.10;9.83;;;;;;;;;;4934713;29;20583;-84
2021/10/31 08:53:59;;;;;;;8.93;7.77;;;;;;;;;;4934618;29;20285;-84
2021/10/31 08:56:27;;;;;;;13.13;9.23;;;;;;;;;;4934866;29;20734;-90
2021/10/31 08:58:54;;;;;;;20.13;15.43;;;;;;;;;;4939012;28;20707;-85
2021/10/31 09:01:23;;;;;;;16.63;13.23;;;;;;;;;;4972887;28;20201;-85
2021/10/31 09:03:52;;;;;;;21.90;14.63;;;;;;;;;;4973316;28;20190;-84
2021/10/31 09:06:20;;;;;;;17.33;14.23;;;;;;;;;;4973232;28;20201;-87
2021/10/31 09:08:47;;;;;;;19.17;14.53;;;;;;;;;;4972712;28;20684;-84
2021/10/31 09:11:14;;;;;;;21.73;17.40;;;;;;;;;;4972257;28;20205;-83
2021/10/31 09:13:41;;;;;;;29.37;20.83;;;;;;;;;;4972570;28;20205;-83
2021/10/31 09:16:09;;;;;;;27.93;20.57;;;;;;;;;;4972649;28;20205;-83
2021/10/31 09:18:38;;;;;;;25.53;20.40;;;;;;;;;;4973157;28;20280;-84
2021/10/31 09:21:07;;;;;;;24.83;20.27;;;;;;;;;;4972886;28;20235;-84
2021/10/31 09:23:35;;;;;;;27.23;21.43;;;;;;;;;;4973551;28;20624;-84
2021/10/31 09:26:02;;;;;;;15.47;13.40;;;;;;;;;;4972839;28;20197;-83
2021/10/31 09:28:29;;;;;;;19.17;13.40;;;;;;;;;;4972508;28;20217;-84
2021/10/31 09:30:57;;;;;;;13.90;12.50;;;;;;;;;;4972600;28;20229;-84
2021/10/31 09:33:24;;;;;;;14.07;11.27;;;;;;;;;;4972767;28;20204;-85
2021/10/31 09:35:56;;;;;;;12.40;10.07;;;;;;;;;;4972919;28;20225;-84
2021/10/31 09:38:26;;;;;;;12.27;10.90;;;;;;;;;;4974352;28;20189;-84
2021/10/31 09:40:54;;;;;;;13.60;11.23;;;;;;;;;;4976139;28;20260;-84
2021/10/31 09:43:24;;;;;;;13.07;11.40;;;;;;;;;;4976634;28;20585;-85
2021/10/31 09:45:51;;;;;;;12.60;9.63;;;;;;;;;;4976228;28;20562;-83
2021/10/31 09:48:18;;;;;;;14.17;11.97;;;;;;;;;;4976179;28;20211;-84
2021/10/31 09:50:48;;;;;;;9.40;8.50;;;;;;;;;;4975557;28;20243;-83
2021/10/31 09:53:19;;;;;;;9.33;8.43;;;;;;;;;;4976006;28;20205;-84
2021/10/31 09:55:48;;;;;;;13.07;10.23;;;;;;;;;;4975737;28;20276;-83
2021/10/31 09:58:21;;;;;;;10.67;9.57;;;;;;;;;;4976112;28;20260;-84
2021/10/31 10:00:50;;;;;;;12.47;9.97;;;;;;;;;;4975943;28;20296;-85
2021/10/31 10:03:25;;;;;;;11.60;9.13;;;;;;;;;;4975818;28;20232;-86
2021/10/31 10:06:08;;;;;;;9.80;7.20;;;;;;;;;;4975837;28;20215;-84
2021/10/31 10:08:37;;;;;;;8.30;7.50;;;;;;;;;;4975726;28;20200;-83
2021/10/31 10:11:04;;;;;;;11.23;8.00;;;;;;;;;;4975346;28;20197;-85
2021/10/31 10:13:33;;;;;;;10.70;8.03;;;;;;;;;;4975575;28;20288;-84
2021/10/31 10:16:20;;;;;;;8.97;7.90;;;;;;;;;;4975346;28;20240;-83
2021/10/31 10:18:47;;;;;;;13.47;11.40;;;;;;;;;;4975534;28;20377;-83
2021/10/31 10:21:16;;;;;;;10.00;8.33;;;;;;;;;;4975113;28;20239;-83
2021/10/31 10:23:52;;;;;;;15.23;12.17;;;;;;;;;;4975385;28;20201;-82
2021/10/31 10:26:31;;;;;;;15.90;13.10;;;;;;;;;;4974965;28;20195;-84
2021/10/31 10:29:12;;;;;;;20.77;15.83;;;;;;;;;;4975456;28;20240;-85
2021/10/31 10:31:41;;;;;;;10.50;9.53;;;;;;;;;;4975162;28;20197;-84
2021/10/31 10:34:08;;;;;;;10.53;7.20;;;;;;;;;;4974971;28;20208;-84
2021/10/31 10:36:41;;;;;;;8.43;7.73;;;;;;;;;;4975018;28;20737;-85
2021/10/31 10:39:12;;;;;;;9.30;7.37;;;;;;;;;;4973869;28;20201;-83
2021/10/31 10:41:49;;;;;;;7.43;6.63;;;;;;;;;;4955382;29;20209;-84
2021/10/31 10:44:27;;;;;;;10.27;7.77;;;;;;;;;;4955785;29;20190;-84
2021/10/31 10:46:57;;;;;;;10.97;9.57;;;;;;;;;;4955633;29;20198;-84
2021/10/31 10:49:25;;;;;;;7.27;6.43;;;;;;;;;;4954348;28;20242;-84
2021/10/31 10:52:20;;;;;;;7.40;6.70;;;;;;;;;;4955292;29;20663;-84
2021/10/31 10:55:05;;;;;;;14.20;9.50;;;;;;;;;;4955417;29;20201;-84
2021/10/31 10:57:34;;;;;;;9.77;8.77;;;;;;;;;;4953223;29;20293;-84
2021/10/31 11:00:05;;;;;;;9.47;7.53;;;;;;;;;;4955066;29;20225;-83
2021/10/31 11:02:32;;;;;;;10.23;7.07;;;;;;;;;;4955672;29;20551;-83
2021/10/31 11:05:01;;;;;;;15.13;10.60;;;;;;;;;;4955139;29;20671;-84
2021/10/31 11:07:30;;;;;;;8.57;7.80;;;;;;;;;;4955347;29;20212;-84
2021/10/31 11:09:59;;;;;;;8.67;7.67;;;;;;;;;;4954858;29;20198;-84
2021/10/31 11:12:30;;;;;;;9.80;8.80;;;;;;;;;;4955151;29;20267;-84
2021/10/31 11:15:00;;;;;;;11.93;10.70;;;;;;;;;;4955269;29;20204;-83
2021/10/31 11:17:28;;;;;;;11.53;10.43;;;;;;;;;;4954136;29;20205;-84
2021/10/31 11:19:56;;;;;;;8.27;7.43;;;;;;;;;;4953889;29;20732;-84
2021/10/31 11:22:24;;;;;;;7.03;6.40;;;;;;;;;;4954389;29;20206;-84
2021/10/31 11:24:53;;;;;;;9.10;8.20;;;;;;;;;;4954268;29;20690;-81
2021/10/31 11:27:24;;;;;;;14.20;11.20;;;;;;;;;;4954224;29;20194;-84
2021/10/31 11:29:52;;;;;;;15.10;10.90;;;;;;;;;;4953831;29;20713;-83
2021/10/31 11:32:21;;;;;;;10.40;9.23;;;;;;;;;;4966654;28;20592;-82
2021/10/31 11:34:50;;;;;;;10.40;8.97;;;;;;;;;;4973764;28;20205;-83
2021/10/31 11:37:19;;;;;;;9.53;7.60;;;;;;;;;;4973147;28;20695;-83
2021/10/31 11:39:48;;;;;;;12.27;8.47;;;;;;;;;;4973721;28;20201;-83
2021/10/31 11:42:16;;;;;;;101.33;68.23;;;;;;;;;;4973481;28;20692;-83
2021/10/31 11:45:05;;;;;;;15.00;12.60;;;;;;;;;;4972620;28;20189;-83
2021/10/31 11:47:33;;;;;;;11.83;8.77;;;;;;;;;;4972921;28;20654;-85
2021/10/31 11:50:02;;;;;;;11.47;8.03;;;;;;;;;;4972536;28;20236;-84
2021/10/31 11:52:49;;;;;;;9.57;7.40;;;;;;;;;;4972809;28;20240;-81
2021/10/31 11:55:35;;;;;;;12.03;8.80;;;;;;;;;;4972388;28;20211;-82
2021/10/31 11:58:53;;;;;;;11.73;8.13;;;;;;;;;;4971449;28;20216;-82
2021/10/31 12:01:25;;;;;;;8.77;7.50;;;;;;;;;;4954493;28;20237;-82
2021/10/31 12:03:54;;;;;;;9.93;8.43;;;;;;;;;;4936746;29;20671;-82
2021/10/31 12:06:51;;;;;;;13.00;8.23;;;;;;;;;;4944345;29;20206;-83
2021/10/31 12:09:24;;;;;;;11.50;8.53;;;;;;;;;;4856847;29;20250;-83
2021/10/31 12:12:16;;;;;;;10.70;8.03;;;;;;;;;;4919074;29;20240;-82
2021/10/31 12:15:05;;;;;;;11.27;8.27;;;;;;;;;;4915398;29;20692;-82
2021/10/31 12:18:05;;;;;;;9.27;8.30;;;;;;;;;;4934175;29;20199;-83
2021/10/31 12:20:50;;;;;;;12.20;7.47;;;;;;;;;;4933842;29;20228;-82
2021/10/31 12:23:22;;;;;;;10.43;9.40;;;;;;;;;;4934062;29;20223;-83
2021/10/31 12:25:50;;;;;;;8.70;7.70;;;;;;;;;;4952889;28;20212;-83
2021/10/31 12:28:39;;;;;;;10.17;9.17;;;;;;;;;;4972330;28;20679;-82
2021/10/31 12:31:23;;;;;;;9.87;8.87;;;;;;;;;;4967919;28;20202;-83
2021/10/31 12:34:11;;;;;;;9.23;8.43;;;;;;;;;;4971969;28;20205;-82
2021/10/31 12:36:40;;;;;;;10.77;8.33;;;;;;;;;;4971580;28;20245;-83
2021/10/31 12:39:40;;;;;;;13.00;9.37;;;;;;;;;;4962864;28;20210;-83
2021/10/31 12:42:13;;;;;;;8.53;7.57;;;;;;;;;;4959280;28;20224;-83
2021/10/31 12:44:43;;;;;;;10.33;8.63;;;;;;;;;;4972406;28;20201;-82
2021/10/31 12:47:13;;;;;;;24.33;17.17;;;;;;;;;;4972422;28;20684;-82
2021/10/31 12:49:42;;;;;;;13.03;11.40;;;;;;;;;;4971334;28;20240;-82
2021/10/31 12:52:24;;;;;;;17.47;14.27;;;;;;;;;;4972320;28;20303;-83
2021/10/31 12:54:59;;;;;;;26.70;18.97;;;;;;;;;;4967710;28;20199;-83
2021/10/31 12:57:27;;;;;;;22.63;15.90;;;;;;;;;;4967571;28;20214;-83
2021/10/31 12:59:56;;;;;;;15.60;11.47;;;;;;;;;;4972315;28;20198;-83
2021/10/31 13:02:24;;;;;;;22.87;16.87;;;;;;;;;;4972145;28;20201;-82
2021/10/31 13:04:55;;;;;;;16.03;12.47;;;;;;;;;;4972699;28;20213;-83
2021/10/31 13:07:26;;;;;;;12.87;11.23;;;;;;;;;;4958985;28;20194;-83
2021/10/31 13:09:56;;;;;;;13.80;10.43;;;;;;;;;;4952939;29;20237;-83
2021/10/31 13:12:25;;;;;;;19.17;17.17;;;;;;;;;;4954788;28;20224;-85
2021/10/31 13:14:52;;;;;;;16.60;14.57;;;;;;;;;;4957680;29;20566;-82
2021/10/31 13:17:20;;;;;;;16.67;12.03;;;;;;;;;;4963711;29;20209;-83
2021/10/31 13:19:47;;;;;;;18.80;16.07;;;;;;;;;;4965197;29;20289;-83
2021/10/31 13:22:19;;;;;;;27.57;18.47;;;;;;;;;;4965527;29;20226;-83
2021/10/31 13:24:48;;;;;;;19.40;17.37;;;;;;;;;;4965200;29;20718;-83
2021/10/31 13:27:22;;;;;;;21.37;16.90;;;;;;;;;;4965027;29;20198;-83
2021/10/31 13:29:51;;;;;;;20.53;15.60;;;;;;;;;;4964802;29;20190;-84
2021/10/31 13:32:20;;;;;;;19.97;15.73;;;;;;;;;;4965769;29;20206;-82
2021/10/31 13:34:48;;;;;;;24.73;16.73;;;;;;;;;;4965092;29;20583;-84
2021/10/31 13:37:23;;;;;;;28.93;20.77;;;;;;;;;;4962929;29;20675;-84
2021/10/31 13:39:57;;;;;;;24.37;17.67;;;;;;;;;;4963559;29;20564;-84
2021/10/31 13:42:29;;;;;;;28.33;19.30;;;;;;;;;;4963877;29;20601;-84
2021/10/31 13:44:57;;;;;;;22.83;17.37;;;;;;;;;;4965130;29;20220;-85
2021/10/31 13:47:38;;;;;;;18.30;14.27;;;;;;;;;;4966628;29;20289;-85
2021/10/31 13:50:11;;;;;;;24.67;15.90;;;;;;;;;;4956140;28;20245;-84
2021/10/31 13:52:42;;;;;;;24.57;17.63;;;;;;;;;;4956639;29;20280;-84
2021/10/31 13:55:11;;;;;;;26.37;19.33;;;;;;;;;;4956816;29;20217;-84
2021/10/31 13:57:42;;;;;;;40.30;26.13;;;;;;;;;;4956486;29;20202;-84
2021/10/31 14:00:15;;;;;;;35.07;25.27;;;;;;;;;;4956369;29;20194;-84
2021/10/31 14:02:42;;;;;;;36.20;27.30;;;;;;;;;;4957098;29;20265;-84
2021/10/31 14:05:12;;;;;;;35.10;29.23;;;;;;;;;;4956646;29;20210;-84
2021/10/31 14:07:43;;;;;;;23.40;19.77;;;;;;;;;;4956511;29;20201;-84
2021/10/31 14:10:12;;;;;;;19.90;17.03;;;;;;;;;;4956775;29;20194;-84
2021/10/31 14:12:39;;;;;;;20.83;16.20;;;;;;;;;;4956581;29;20205;-85
2021/10/31 14:15:10;;;;;;;18.07;16.17;;;;;;;;;;4955193;29;20287;-84
2021/10/31 14:17:39;;;;;;;20.50;18.13;;;;;;;;;;4956667;29;20222;-84
2021/10/31 14:20:14;;;;;;;18.57;15.93;;;;;;;;;;4956048;29;20264;-84
2021/10/31 14:22:50;;;;;;;18.17;16.33;;;;;;;;;;4956131;29;20214;-83
2021/10/31 14:25:19;;;;;;;16.63;14.83;;;;;;;;;;4955528;28;20734;-82
2021/10/31 14:27:47;;;;;;;13.83;12.13;;;;;;;;;;4956179;29;20622;-83
2021/10/31 14:30:26;;;;;;;24.40;20.40;;;;;;;;;;4955581;29;20217;-83
2021/10/31 14:32:59;;;;;;;42.33;37.30;;;;;;;;;;4955763;29;20693;-84
2021/10/31 14:35:44;;;;;;;28.73;23.40;;;;;;;;;;4955651;29;20230;-83
2021/10/31 14:38:34;;;;;;;22.13;17.63;;;;;;;;;;4956328;29;20252;-83
2021/10/31 14:41:07;;;;;;;20.20;15.27;;;;;;;;;;4955184;29;20762;-83
2021/10/31 14:43:35;;;;;;;20.33;16.47;;;;;;;;;;4955701;29;20193;-84
2021/10/31 14:46:07;;;;;;;19.53;14.77;;;;;;;;;;4955447;29;20244;-84